sensor_id;sensor_type;location;lat;lon;timestamp;temperature;humidity
59855;DHT22;45732;52.850;6.896;2023-01-13T00:00:48;9.60;99.90
59855;DHT22;45732;52.850;6.896;2023-01-13T00:03:14;9.60;99.90
59855;DHT22;45732;52.850;6.896;2023-01-13T00:05:39;9.60;99.90
59855;DHT22;45732;52.850;6.896;2023-01-13T00:08:05;9.60;99.90
59855;DHT22;45732;52.850;6.896;2023-01-13T00:10:32;9.60;99.90
59855;DHT22;45732;52.850;6.896;2023-01-13T00:12:58;9.50;99.90
59855;DHT22;45732;52.850;6.896;2023-01-13T00:15:24;9.50;99.90
59855;DHT22;45732;52.850;6.896;2023-01-13T00:17:49;9.50;99.90
59855;DHT22;45732;52.850;6.896;2023-01-13T00:20:16;9.50;99.90
59855;DHT22;45732;52.850;6.896;2023-01-13T00:22:42;9.40;99.90
59855;DHT22;45732;52.850;6.896;2023-01-13T00:25:08;9.40;99.90
59855;DHT22;45732;52.850;6.896;2023-01-13T00:27:33;9.40;99.90
59855;DHT22;45732;52.850;6.896;2023-01-13T00:29:59;9.30;99.90
59855;DHT22;45732;52.850;6.896;2023-01-13T00:32:26;9.30;99.90
59855;DHT22;45732;52.850;6.896;2023-01-13T00:34:52;9.30;99.90
59855;DHT22;45732;52.850;6.896;2023-01-13T00:37:18;9.20;99.90
59855;DHT22;45732;52.850;6.896;2023-01-13T00:39:44;9.20;99.90
59855;DHT22;45732;52.850;6.896;2023-01-13T00:42:10;9.20;99.90
59855;DHT22;45732;52.850;6.896;2023-01-13T00:44:54;9.10;99.90
59855;DHT22;45732;52.850;6.896;2023-01-13T00:47:20;9.10;99.90
59855;DHT22;45732;52.850;6.896;2023-01-13T00:49:48;9.10;99.90
59855;DHT22;45732;52.850;6.896;2023-01-13T00:52:14;9.00;99.90
59855;DHT22;45732;52.850;6.896;2023-01-13T00:54:40;9.00;99.90
59855;DHT22;45732;52.850;6.896;2023-01-13T00:57:06;9.00;99.90
59855;DHT22;45732;52.850;6.896;2023-01-13T00:59:31;8.90;99.90
59855;DHT22;45732;52.850;6.896;2023-01-13T01:01:57;8.90;99.90
59855;DHT22;45732;52.850;6.896;2023-01-13T01:04:23;8.90;99.90
59855;DHT22;45732;52.850;6.896;2023-01-13T01:06:49;8.90;99.90
59855;DHT22;45732;52.850;6.896;2023-01-13T01:09:15;8.80;99.90
59855;DHT22;45732;52.850;6.896;2023-01-13T01:11:42;8.80;99.90
59855;DHT22;45732;52.850;6.896;2023-01-13T01:14:10;8.90;99.90
59855;DHT22;45732;52.850;6.896;2023-01-13T01:16:37;8.80;99.90
59855;DHT22;45732;52.850;6.896;2023-01-13T01:19:04;8.90;99.90
59855;DHT22;45732;52.850;6.896;2023-01-13T01:21:31;8.80;99.90
59855;DHT22;45732;52.850;6.896;2023-01-13T01:24:01;8.80;99.90
59855;DHT22;45732;52.850;6.896;2023-01-13T01:26:28;8.80;99.90
59855;DHT22;45732;52.850;6.896;2023-01-13T01:28:54;8.80;99.90
59855;DHT22;45732;52.850;6.896;2023-01-13T01:31:25;8.90;99.90
59855;DHT22;45732;52.850;6.896;2023-01-13T01:33:52;8.90;99.90
59855;DHT22;45732;52.850;6.896;2023-01-13T01:36:20;8.90;99.90
59855;DHT22;45732;52.850;6.896;2023-01-13T01:38:47;8.90;99.90
59855;DHT22;45732;52.850;6.896;2023-01-13T01:41:21;8.90;99.90
59855;DHT22;45732;52.850;6.896;2023-01-13T01:43:55;8.90;99.90
59855;DHT22;45732;52.850;6.896;2023-01-13T01:49:03;8.90;99.90
59855;DHT22;45732;52.850;6.896;2023-01-13T01:51:34;8.90;99.90
59855;DHT22;45732;52.850;6.896;2023-01-13T01:54:03;8.90;99.90
59855;DHT22;45732;52.850;6.896;2023-01-13T01:56:32;8.80;99.90
59855;DHT22;45732;52.850;6.896;2023-01-13T01:58:58;8.80;99.90
59855;DHT22;45732;52.850;6.896;2023-01-13T02:01:24;8.80;99.90
59855;DHT22;45732;52.850;6.896;2023-01-13T02:03:56;8.80;99.90
59855;DHT22;45732;52.850;6.896;2023-01-13T02:06:24;8.80;99.90
59855;DHT22;45732;52.850;6.896;2023-01-13T02:08:51;8.70;99.90
59855;DHT22;45732;52.850;6.896;2023-01-13T02:11:33;8.70;99.90
59855;DHT22;45732;52.850;6.896;2023-01-13T02:14:22;8.70;99.90
59855;DHT22;45732;52.850;6.896;2023-01-13T02:28:15;8.60;99.90
59855;DHT22;45732;52.850;6.896;2023-01-13T02:31:06;8.70;99.90
59855;DHT22;45732;52.850;6.896;2023-01-13T02:38:55;8.60;99.90
59855;DHT22;45732;52.850;6.896;2023-01-13T02:41:49;8.60;99.90
59855;DHT22;45732;52.850;6.896;2023-01-13T02:45:00;8.50;99.90
59855;DHT22;45732;52.850;6.896;2023-01-13T02:47:29;8.50;99.90
59855;DHT22;45732;52.850;6.896;2023-01-13T02:50:02;8.50;99.90
59855;DHT22;45732;52.850;6.896;2023-01-13T02:52:51;8.50;99.90
59855;DHT22;45732;52.850;6.896;2023-01-13T02:55:21;8.40;99.90
59855;DHT22;45732;52.850;6.896;2023-01-13T02:57:49;8.40;99.90
59855;DHT22;45732;52.850;6.896;2023-01-13T03:00:16;8.30;99.90
59855;DHT22;45732;52.850;6.896;2023-01-13T03:02:42;8.30;99.90
59855;DHT22;45732;52.850;6.896;2023-01-13T03:05:12;8.30;99.90
59855;DHT22;45732;52.850;6.896;2023-01-13T03:11:10;8.20;99.90
59855;DHT22;45732;52.850;6.896;2023-01-13T03:24:12;8.30;99.90
59855;DHT22;45732;52.850;6.896;2023-01-13T03:26:48;8.20;99.90
59855;DHT22;45732;52.850;6.896;2023-01-13T03:31:52;8.20;99.90
59855;DHT22;45732;52.850;6.896;2023-01-13T03:34:21;8.20;99.90
59855;DHT22;45732;52.850;6.896;2023-01-13T03:36:52;8.20;99.90
59855;DHT22;45732;52.850;6.896;2023-01-13T03:39:24;8.20;99.90
59855;DHT22;45732;52.850;6.896;2023-01-13T03:41:56;8.30;99.90
59855;DHT22;45732;52.850;6.896;2023-01-13T03:44:32;8.30;99.90
59855;DHT22;45732;52.850;6.896;2023-01-13T03:47:21;8.30;99.90
59855;DHT22;45732;52.850;6.896;2023-01-13T03:49:52;8.30;99.90
59855;DHT22;45732;52.850;6.896;2023-01-13T03:52:24;8.30;99.90
59855;DHT22;45732;52.850;6.896;2023-01-13T03:54:56;8.30;99.90
59855;DHT22;45732;52.850;6.896;2023-01-13T03:57:27;8.40;99.90
59855;DHT22;45732;52.850;6.896;2023-01-13T03:59:56;8.40;99.90
59855;DHT22;45732;52.850;6.896;2023-01-13T04:05:02;8.30;99.90
59855;DHT22;45732;52.850;6.896;2023-01-13T04:10:39;8.30;99.90
59855;DHT22;45732;52.850;6.896;2023-01-13T04:13:16;8.30;99.90
59855;DHT22;45732;52.850;6.896;2023-01-13T04:15:45;8.30;99.90
59855;DHT22;45732;52.850;6.896;2023-01-13T04:20:40;8.30;99.90
59855;DHT22;45732;52.850;6.896;2023-01-13T04:23:07;8.30;99.90
59855;DHT22;45732;52.850;6.896;2023-01-13T04:25:33;8.30;99.90
59855;DHT22;45732;52.850;6.896;2023-01-13T04:27:59;8.30;99.90
59855;DHT22;45732;52.850;6.896;2023-01-13T04:30:24;8.30;99.90
59855;DHT22;45732;52.850;6.896;2023-01-13T04:32:50;8.30;99.90
59855;DHT22;45732;52.850;6.896;2023-01-13T04:35:16;8.30;99.90
59855;DHT22;45732;52.850;6.896;2023-01-13T04:37:42;8.40;99.90
59855;DHT22;45732;52.850;6.896;2023-01-13T04:40:08;8.30;99.90
59855;DHT22;45732;52.850;6.896;2023-01-13T04:42:33;8.30;99.90
59855;DHT22;45732;52.850;6.896;2023-01-13T04:44:59;8.30;99.90
59855;DHT22;45732;52.850;6.896;2023-01-13T04:47:25;8.30;99.90
59855;DHT22;45732;52.850;6.896;2023-01-13T04:49:50;8.30;99.90
59855;DHT22;45732;52.850;6.896;2023-01-13T04:52:16;8.30;99.90
59855;DHT22;45732;52.850;6.896;2023-01-13T04:54:42;8.30;99.90
59855;DHT22;45732;52.850;6.896;2023-01-13T04:57:07;8.30;99.90
59855;DHT22;45732;52.850;6.896;2023-01-13T04:59:33;8.30;99.90
59855;DHT22;45732;52.850;6.896;2023-01-13T05:01:59;8.30;99.90
59855;DHT22;45732;52.850;6.896;2023-01-13T05:04:25;8.30;99.90
59855;DHT22;45732;52.850;6.896;2023-01-13T05:06:50;8.20;99.90
59855;DHT22;45732;52.850;6.896;2023-01-13T05:09:16;8.20;99.90
59855;DHT22;45732;52.850;6.896;2023-01-13T05:11:42;8.20;99.90
59855;DHT22;45732;52.850;6.896;2023-01-13T05:14:26;8.30;99.90
59855;DHT22;45732;52.850;6.896;2023-01-13T05:17:17;8.20;99.90
59855;DHT22;45732;52.850;6.896;2023-01-13T05:19:44;8.30;99.90
59855;DHT22;45732;52.850;6.896;2023-01-13T05:22:09;8.30;99.90
59855;DHT22;45732;52.850;6.896;2023-01-13T05:24:54;8.30;99.90
59855;DHT22;45732;52.850;6.896;2023-01-13T05:27:38;8.20;99.90
59855;DHT22;45732;52.850;6.896;2023-01-13T05:30:04;8.20;99.90
59855;DHT22;45732;52.850;6.896;2023-01-13T05:32:30;8.20;99.90
59855;DHT22;45732;52.850;6.896;2023-01-13T05:34:56;8.20;99.90
59855;DHT22;45732;52.850;6.896;2023-01-13T05:37:22;8.20;99.90
59855;DHT22;45732;52.850;6.896;2023-01-13T05:39:48;8.20;99.90
59855;DHT22;45732;52.850;6.896;2023-01-13T05:42:32;8.30;99.90
59855;DHT22;45732;52.850;6.896;2023-01-13T05:45:17;8.30;99.90
59855;DHT22;45732;52.850;6.896;2023-01-13T05:47:43;8.30;99.90
59855;DHT22;45732;52.850;6.896;2023-01-13T05:50:09;8.30;99.90
59855;DHT22;45732;52.850;6.896;2023-01-13T05:52:35;8.30;99.90
59855;DHT22;45732;52.850;6.896;2023-01-13T05:55:00;8.30;99.90
59855;DHT22;45732;52.850;6.896;2023-01-13T05:57:26;8.30;99.90
59855;DHT22;45732;52.850;6.896;2023-01-13T05:59:52;8.30;99.90
59855;DHT22;45732;52.850;6.896;2023-01-13T06:02:17;8.30;99.90
59855;DHT22;45732;52.850;6.896;2023-01-13T06:04:43;8.20;99.90
59855;DHT22;45732;52.850;6.896;2023-01-13T06:07:09;8.20;99.90
59855;DHT22;45732;52.850;6.896;2023-01-13T06:09:34;8.20;99.90
59855;DHT22;45732;52.850;6.896;2023-01-13T06:12:00;8.20;99.90
59855;DHT22;45732;52.850;6.896;2023-01-13T06:14:26;8.20;99.90
59855;DHT22;45732;52.850;6.896;2023-01-13T06:17:14;8.20;99.90
59855;DHT22;45732;52.850;6.896;2023-01-13T06:19:40;8.20;99.90
59855;DHT22;45732;52.850;6.896;2023-01-13T06:22:15;8.20;99.90
59855;DHT22;45732;52.850;6.896;2023-01-13T06:24:43;8.30;99.90
59855;DHT22;45732;52.850;6.896;2023-01-13T06:27:10;8.30;99.90
59855;DHT22;45732;52.850;6.896;2023-01-13T06:29:37;8.30;99.90
59855;DHT22;45732;52.850;6.896;2023-01-13T06:32:06;8.30;99.90
59855;DHT22;45732;52.850;6.896;2023-01-13T06:34:35;8.30;99.90
59855;DHT22;45732;52.850;6.896;2023-01-13T06:37:02;8.30;99.90
59855;DHT22;45732;52.850;6.896;2023-01-13T06:39:28;8.30;99.90
59855;DHT22;45732;52.850;6.896;2023-01-13T06:41:56;8.30;99.90
59855;DHT22;45732;52.850;6.896;2023-01-13T06:44:41;8.30;99.90
59855;DHT22;45732;52.850;6.896;2023-01-13T06:47:07;8.30;99.90
59855;DHT22;45732;52.850;6.896;2023-01-13T06:49:33;8.30;99.90
59855;DHT22;45732;52.850;6.896;2023-01-13T06:51:59;8.30;99.90
59855;DHT22;45732;52.850;6.896;2023-01-13T06:54:24;8.30;99.90
59855;DHT22;45732;52.850;6.896;2023-01-13T06:56:50;8.30;99.90
59855;DHT22;45732;52.850;6.896;2023-01-13T06:59:16;8.30;99.90
59855;DHT22;45732;52.850;6.896;2023-01-13T07:01:42;8.30;99.90
59855;DHT22;45732;52.850;6.896;2023-01-13T07:04:08;8.30;99.90
59855;DHT22;45732;52.850;6.896;2023-01-13T07:06:33;8.30;99.90
59855;DHT22;45732;52.850;6.896;2023-01-13T07:08:59;8.30;99.90
59855;DHT22;45732;52.850;6.896;2023-01-13T07:11:25;8.30;99.90
59855;DHT22;45732;52.850;6.896;2023-01-13T07:13:50;8.30;99.90
59855;DHT22;45732;52.850;6.896;2023-01-13T07:16:35;8.30;99.90
59855;DHT22;45732;52.850;6.896;2023-01-13T07:19:00;8.30;99.90
59855;DHT22;45732;52.850;6.896;2023-01-13T07:21:26;8.30;99.90
59855;DHT22;45732;52.850;6.896;2023-01-13T07:23:52;8.30;99.90
59855;DHT22;45732;52.850;6.896;2023-01-13T07:26:17;8.30;99.90
59855;DHT22;45732;52.850;6.896;2023-01-13T07:28:43;8.20;99.90
59855;DHT22;45732;52.850;6.896;2023-01-13T07:31:17;8.20;99.90
59855;DHT22;45732;52.850;6.896;2023-01-13T07:33:43;8.20;99.90
59855;DHT22;45732;52.850;6.896;2023-01-13T07:36:09;8.20;99.90
59855;DHT22;45732;52.850;6.896;2023-01-13T07:38:35;8.10;99.90
59855;DHT22;45732;52.850;6.896;2023-01-13T07:41:01;8.10;99.90
59855;DHT22;45732;52.850;6.896;2023-01-13T07:43:46;8.20;99.90
59855;DHT22;45732;52.850;6.896;2023-01-13T07:46:12;8.20;99.90
59855;DHT22;45732;52.850;6.896;2023-01-13T07:48:37;8.20;99.90
59855;DHT22;45732;52.850;6.896;2023-01-13T07:51:06;8.20;99.90
59855;DHT22;45732;52.850;6.896;2023-01-13T07:53:33;8.20;99.90
59855;DHT22;45732;52.850;6.896;2023-01-13T07:56:00;8.20;99.90
59855;DHT22;45732;52.850;6.896;2023-01-13T07:58:27;8.20;99.90
59855;DHT22;45732;52.850;6.896;2023-01-13T08:00:53;8.20;99.90
59855;DHT22;45732;52.850;6.896;2023-01-13T08:03:20;8.10;99.90
59855;DHT22;45732;52.850;6.896;2023-01-13T08:05:45;8.10;99.90
59855;DHT22;45732;52.850;6.896;2023-01-13T08:08:11;8.10;99.90
59855;DHT22;45732;52.850;6.896;2023-01-13T08:10:37;8.10;99.90
59855;DHT22;45732;52.850;6.896;2023-01-13T08:13:13;8.10;99.90
59855;DHT22;45732;52.850;6.896;2023-01-13T08:15:45;8.10;99.90
59855;DHT22;45732;52.850;6.896;2023-01-13T08:18:11;8.10;99.90
59855;DHT22;45732;52.850;6.896;2023-01-13T08:20:37;8.10;99.90
59855;DHT22;45732;52.850;6.896;2023-01-13T08:23:03;8.10;99.90
59855;DHT22;45732;52.850;6.896;2023-01-13T08:25:30;8.00;99.90
59855;DHT22;45732;52.850;6.896;2023-01-13T08:27:56;8.00;99.90
59855;DHT22;45732;52.850;6.896;2023-01-13T08:30:25;8.00;99.90
59855;DHT22;45732;52.850;6.896;2023-01-13T08:32:51;8.00;99.90
59855;DHT22;45732;52.850;6.896;2023-01-13T08:35:17;8.00;99.90
59855;DHT22;45732;52.850;6.896;2023-01-13T08:37:43;7.90;99.90
59855;DHT22;45732;52.850;6.896;2023-01-13T08:40:10;7.90;99.90
59855;DHT22;45732;52.850;6.896;2023-01-13T08:42:36;7.80;99.90
59855;DHT22;45732;52.850;6.896;2023-01-13T08:45:03;7.80;99.90
59855;DHT22;45732;52.850;6.896;2023-01-13T08:47:29;7.80;99.90
59855;DHT22;45732;52.850;6.896;2023-01-13T08:49:54;7.80;99.90
59855;DHT22;45732;52.850;6.896;2023-01-13T08:52:20;7.90;99.90
59855;DHT22;45732;52.850;6.896;2023-01-13T08:54:46;7.80;99.90
59855;DHT22;45732;52.850;6.896;2023-01-13T08:57:12;7.80;99.90
59855;DHT22;45732;52.850;6.896;2023-01-13T08:59:39;7.80;99.90
59855;DHT22;45732;52.850;6.896;2023-01-13T09:02:16;7.90;99.90
59855;DHT22;45732;52.850;6.896;2023-01-13T09:04:42;7.90;99.90
59855;DHT22;45732;52.850;6.896;2023-01-13T09:07:08;7.90;99.90
59855;DHT22;45732;52.850;6.896;2023-01-13T09:09:34;7.90;99.90
59855;DHT22;45732;52.850;6.896;2023-01-13T09:12:00;7.90;99.90
59855;DHT22;45732;52.850;6.896;2023-01-13T09:14:44;7.90;99.90
59855;DHT22;45732;52.850;6.896;2023-01-13T09:17:10;7.90;99.90
59855;DHT22;45732;52.850;6.896;2023-01-13T09:19:36;7.80;99.90
59855;DHT22;45732;52.850;6.896;2023-01-13T09:22:02;7.80;99.90
59855;DHT22;45732;52.850;6.896;2023-01-13T09:24:29;7.80;99.90
59855;DHT22;45732;52.850;6.896;2023-01-13T09:26:54;7.80;99.90
59855;DHT22;45732;52.850;6.896;2023-01-13T09:29:20;7.80;99.90
59855;DHT22;45732;52.850;6.896;2023-01-13T09:31:47;7.90;99.90
59855;DHT22;45732;52.850;6.896;2023-01-13T09:34:16;7.90;99.90
59855;DHT22;45732;52.850;6.896;2023-01-13T09:37:01;7.90;99.90
59855;DHT22;45732;52.850;6.896;2023-01-13T09:39:27;7.90;99.90
59855;DHT22;45732;52.850;6.896;2023-01-13T09:41:55;8.00;99.90
59855;DHT22;45732;52.850;6.896;2023-01-13T09:44:53;8.00;99.90
59855;DHT22;45732;52.850;6.896;2023-01-13T09:47:29;8.00;99.90
59855;DHT22;45732;52.850;6.896;2023-01-13T09:52:40;8.10;99.90
59855;DHT22;45732;52.850;6.896;2023-01-13T09:55:17;8.10;99.90
59855;DHT22;45732;52.850;6.896;2023-01-13T09:57:44;8.10;99.90
59855;DHT22;45732;52.850;6.896;2023-01-13T10:05:53;8.20;99.90
59855;DHT22;45732;52.850;6.896;2023-01-13T10:11:16;8.20;99.90
59855;DHT22;45732;52.850;6.896;2023-01-13T10:14:36;8.20;99.90
59855;DHT22;45732;52.850;6.896;2023-01-13T10:22:45;8.10;99.90
59855;DHT22;45732;52.850;6.896;2023-01-13T10:25:32;8.20;99.90
59855;DHT22;45732;52.850;6.896;2023-01-13T10:28:10;8.20;99.90
59855;DHT22;45732;52.850;6.896;2023-01-13T10:30:37;8.20;99.90
59855;DHT22;45732;52.850;6.896;2023-01-13T10:33:15;8.20;99.90
59855;DHT22;45732;52.850;6.896;2023-01-13T10:41:04;8.20;99.90
59855;DHT22;45732;52.850;6.896;2023-01-13T10:43:30;8.20;99.90
59855;DHT22;45732;52.850;6.896;2023-01-13T10:45:58;8.20;99.90
59855;DHT22;45732;52.850;6.896;2023-01-13T10:56:36;8.10;99.90
59855;DHT22;45732;52.850;6.896;2023-01-13T11:02:33;8.20;99.90
59855;DHT22;45732;52.850;6.896;2023-01-13T11:05:26;8.10;99.90
59855;DHT22;45732;52.850;6.896;2023-01-13T11:07:37;8.20;99.90
59855;DHT22;45732;52.850;6.896;2023-01-13T11:10:25;8.10;99.90
59855;DHT22;45732;52.850;6.896;2023-01-13T11:13:15;8.20;99.90
59855;DHT22;45732;52.850;6.896;2023-01-13T11:16:00;8.10;99.90
59855;DHT22;45732;52.850;6.896;2023-01-13T11:18:42;8.10;99.90
59855;DHT22;45732;52.850;6.896;2023-01-13T11:21:23;8.10;99.90
59855;DHT22;45732;52.850;6.896;2023-01-13T11:24:17;8.10;99.90
59855;DHT22;45732;52.850;6.896;2023-01-13T11:27:01;8.10;99.90
59855;DHT22;45732;52.850;6.896;2023-01-13T11:29:38;8.10;99.90
59855;DHT22;45732;52.850;6.896;2023-01-13T11:32:12;8.10;99.90
59855;DHT22;45732;52.850;6.896;2023-01-13T11:34:40;8.10;99.90
59855;DHT22;45732;52.850;6.896;2023-01-13T11:37:22;8.20;99.90
59855;DHT22;45732;52.850;6.896;2023-01-13T11:40:13;8.20;99.90
59855;DHT22;45732;52.850;6.896;2023-01-13T11:43:00;8.20;99.90
59855;DHT22;45732;52.850;6.896;2023-01-13T11:45:44;8.20;99.90
59855;DHT22;45732;52.850;6.896;2023-01-13T11:48:18;8.20;99.90
59855;DHT22;45732;52.850;6.896;2023-01-13T11:53:45;8.20;99.90
59855;DHT22;45732;52.850;6.896;2023-01-13T12:04:58;8.30;99.90
59855;DHT22;45732;52.850;6.896;2023-01-13T12:16:26;8.20;99.90
59855;DHT22;45732;52.850;6.896;2023-01-13T12:21:51;8.20;99.90
59855;DHT22;45732;52.850;6.896;2023-01-13T12:24:28;8.20;99.90
59855;DHT22;45732;52.850;6.896;2023-01-13T12:29:55;8.20;99.90
59855;DHT22;45732;52.850;6.896;2023-01-13T12:32:34;8.20;99.90
59855;DHT22;45732;52.850;6.896;2023-01-13T12:51:36;8.40;99.90
59855;DHT22;45732;52.850;6.896;2023-01-13T12:54:59;8.40;99.90
59855;DHT22;45732;52.850;6.896;2023-01-13T13:02:28;8.40;99.90
59855;DHT22;45732;52.850;6.896;2023-01-13T13:08:02;8.50;99.90
59855;DHT22;45732;52.850;6.896;2023-01-13T13:10:38;8.50;99.90
59855;DHT22;45732;52.850;6.896;2023-01-13T13:24:40;8.60;99.90
59855;DHT22;45732;52.850;6.896;2023-01-13T13:27:22;8.60;99.90
59855;DHT22;45732;52.850;6.896;2023-01-13T13:30:11;8.60;99.90
59855;DHT22;45732;52.850;6.896;2023-01-13T13:41:23;8.70;99.90
59855;DHT22;45732;52.850;6.896;2023-01-13T13:44:26;8.70;99.90
59855;DHT22;45732;52.850;6.896;2023-01-13T13:47:12;8.70;99.90
59855;DHT22;45732;52.850;6.896;2023-01-13T13:49:50;8.70;99.90
59855;DHT22;45732;52.850;6.896;2023-01-13T13:54:53;8.80;99.90
59855;DHT22;45732;52.850;6.896;2023-01-13T13:57:38;8.80;99.90
59855;DHT22;45732;52.850;6.896;2023-01-13T14:00:26;8.80;99.90
59855;DHT22;45732;52.850;6.896;2023-01-13T14:02:58;8.90;99.90
59855;DHT22;45732;52.850;6.896;2023-01-13T14:05:32;8.90;99.90
59855;DHT22;45732;52.850;6.896;2023-01-13T14:08:15;8.90;99.90
59855;DHT22;45732;52.850;6.896;2023-01-13T14:10:43;8.90;99.90
59855;DHT22;45732;52.850;6.896;2023-01-13T14:13:17;8.90;99.90
59855;DHT22;45732;52.850;6.896;2023-01-13T14:15:43;8.80;99.90
59855;DHT22;45732;52.850;6.896;2023-01-13T14:18:13;8.80;99.90
59855;DHT22;45732;52.850;6.896;2023-01-13T14:20:40;8.80;99.90
59855;DHT22;45732;52.850;6.896;2023-01-13T14:23:06;8.70;99.90
59855;DHT22;45732;52.850;6.896;2023-01-13T14:25:45;8.70;99.90
59855;DHT22;45732;52.850;6.896;2023-01-13T14:28:46;8.70;99.90
59855;DHT22;45732;52.850;6.896;2023-01-13T14:31:12;8.70;99.90
59855;DHT22;45732;52.850;6.896;2023-01-13T14:33:47;8.60;99.90
59855;DHT22;45732;52.850;6.896;2023-01-13T14:36:22;8.60;99.90
59855;DHT22;45732;52.850;6.896;2023-01-13T14:41:34;8.60;99.90
59855;DHT22;45732;52.850;6.896;2023-01-13T14:44:02;8.60;99.90
59855;DHT22;45732;52.850;6.896;2023-01-13T14:46:43;8.60;99.90
59855;DHT22;45732;52.850;6.896;2023-01-13T14:52:06;8.50;99.90
59855;DHT22;45732;52.850;6.896;2023-01-13T15:04:50;8.40;99.90
59855;DHT22;45732;52.850;6.896;2023-01-13T15:07:28;8.50;99.90
59855;DHT22;45732;52.850;6.896;2023-01-13T15:09:57;8.50;99.90
59855;DHT22;45732;52.850;6.896;2023-01-13T15:12:36;8.60;99.90
59855;DHT22;45732;52.850;6.896;2023-01-13T15:17:52;8.70;99.90
59855;DHT22;45732;52.850;6.896;2023-01-13T15:20:20;8.70;99.90
59855;DHT22;45732;52.850;6.896;2023-01-13T15:22:47;8.70;99.90
59855;DHT22;45732;52.850;6.896;2023-01-13T15:25:13;8.70;99.90
59855;DHT22;45732;52.850;6.896;2023-01-13T15:27:41;8.70;99.90
59855;DHT22;45732;52.850;6.896;2023-01-13T15:30:14;8.70;99.90
59855;DHT22;45732;52.850;6.896;2023-01-13T15:32:41;8.80;99.90
59855;DHT22;45732;52.850;6.896;2023-01-13T15:35:11;8.80;99.90
59855;DHT22;45732;52.850;6.896;2023-01-13T15:37:37;8.70;99.90
59855;DHT22;45732;52.850;6.896;2023-01-13T15:40:03;8.70;99.90
59855;DHT22;45732;52.850;6.896;2023-01-13T15:42:29;8.70;99.90
59855;DHT22;45732;52.850;6.896;2023-01-13T15:45:13;8.70;99.90
59855;DHT22;45732;52.850;6.896;2023-01-13T15:47:58;8.60;99.90
59855;DHT22;45732;52.850;6.896;2023-01-13T15:50:24;8.60;99.90
59855;DHT22;45732;52.850;6.896;2023-01-13T15:52:50;8.50;99.90
59855;DHT22;45732;52.850;6.896;2023-01-13T15:55:16;8.60;99.90
59855;DHT22;45732;52.850;6.896;2023-01-13T15:57:47;8.50;99.90
59855;DHT22;45732;52.850;6.896;2023-01-13T16:00:18;8.40;99.90
59855;DHT22;45732;52.850;6.896;2023-01-13T16:02:45;8.40;99.90
59855;DHT22;45732;52.850;6.896;2023-01-13T16:05:11;8.40;99.90
59855;DHT22;45732;52.850;6.896;2023-01-13T16:07:37;8.30;99.90
59855;DHT22;45732;52.850;6.896;2023-01-13T16:10:06;8.10;99.90
59855;DHT22;45732;52.850;6.896;2023-01-13T16:12:32;8.00;99.90
59855;DHT22;45732;52.850;6.896;2023-01-13T16:14:58;8.00;99.90
59855;DHT22;45732;52.850;6.896;2023-01-13T16:17:25;7.90;99.90
59855;DHT22;45732;52.850;6.896;2023-01-13T16:19:54;8.00;99.90
59855;DHT22;45732;52.850;6.896;2023-01-13T16:22:20;8.00;99.90
59855;DHT22;45732;52.850;6.896;2023-01-13T16:24:46;8.00;99.90
59855;DHT22;45732;52.850;6.896;2023-01-13T16:27:15;8.00;99.90
59855;DHT22;45732;52.850;6.896;2023-01-13T16:29:42;8.00;99.90
59855;DHT22;45732;52.850;6.896;2023-01-13T16:32:08;8.00;99.90
59855;DHT22;45732;52.850;6.896;2023-01-13T16:34:33;8.00;99.90
59855;DHT22;45732;52.850;6.896;2023-01-13T16:36:59;8.00;99.90
59855;DHT22;45732;52.850;6.896;2023-01-13T16:39:25;8.00;99.90
59855;DHT22;45732;52.850;6.896;2023-01-13T16:41:51;8.00;99.90
59855;DHT22;45732;52.850;6.896;2023-01-13T16:44:17;8.00;99.90
59855;DHT22;45732;52.850;6.896;2023-01-13T16:46:43;8.10;99.90
59855;DHT22;45732;52.850;6.896;2023-01-13T16:49:12;8.10;99.90
59855;DHT22;45732;52.850;6.896;2023-01-13T16:51:38;8.10;99.90
59855;DHT22;45732;52.850;6.896;2023-01-13T16:54:05;8.10;99.90
59855;DHT22;45732;52.850;6.896;2023-01-13T16:56:33;8.10;99.90
59855;DHT22;45732;52.850;6.896;2023-01-13T16:59:12;8.00;99.90
59855;DHT22;45732;52.850;6.896;2023-01-13T17:01:40;8.00;99.90
59855;DHT22;45732;52.850;6.896;2023-01-13T17:04:13;7.90;99.90
59855;DHT22;45732;52.850;6.896;2023-01-13T17:07:01;7.90;99.90
59855;DHT22;45732;52.850;6.896;2023-01-13T17:09:28;7.90;99.90
59855;DHT22;45732;52.850;6.896;2023-01-13T17:11:54;7.80;99.90
59855;DHT22;45732;52.850;6.896;2023-01-13T17:14:21;7.90;99.90
59855;DHT22;45732;52.850;6.896;2023-01-13T17:16:53;7.80;99.90
59855;DHT22;45732;52.850;6.896;2023-01-13T17:19:19;7.90;99.90
59855;DHT22;45732;52.850;6.896;2023-01-13T17:21:44;7.90;99.90
59855;DHT22;45732;52.850;6.896;2023-01-13T17:24:12;8.00;99.90
59855;DHT22;45732;52.850;6.896;2023-01-13T17:26:40;7.90;99.90
59855;DHT22;45732;52.850;6.896;2023-01-13T17:29:21;8.00;99.90
59855;DHT22;45732;52.850;6.896;2023-01-13T17:31:51;7.90;99.90
59855;DHT22;45732;52.850;6.896;2023-01-13T17:34:18;7.90;99.90
59855;DHT22;45732;52.850;6.896;2023-01-13T17:36:44;7.90;99.90
59855;DHT22;45732;52.850;6.896;2023-01-13T17:39:21;7.80;99.90
59855;DHT22;45732;52.850;6.896;2023-01-13T17:41:48;7.90;99.90
59855;DHT22;45732;52.850;6.896;2023-01-13T17:44:16;7.90;99.90
59855;DHT22;45732;52.850;6.896;2023-01-13T17:46:42;7.90;99.90
59855;DHT22;45732;52.850;6.896;2023-01-13T17:49:15;7.90;99.90
59855;DHT22;45732;52.850;6.896;2023-01-13T17:51:41;7.90;99.90
59855;DHT22;45732;52.850;6.896;2023-01-13T17:54:08;7.90;99.90
59855;DHT22;45732;52.850;6.896;2023-01-13T17:56:37;8.00;99.90
59855;DHT22;45732;52.850;6.896;2023-01-13T17:59:03;8.00;99.90
59855;DHT22;45732;52.850;6.896;2023-01-13T18:01:29;7.90;99.90
59855;DHT22;45732;52.850;6.896;2023-01-13T18:04:01;8.00;99.90
59855;DHT22;45732;52.850;6.896;2023-01-13T18:06:26;7.90;99.90
59855;DHT22;45732;52.850;6.896;2023-01-13T18:08:53;7.90;99.90
59855;DHT22;45732;52.850;6.896;2023-01-13T18:11:20;7.90;99.90
59855;DHT22;45732;52.850;6.896;2023-01-13T18:13:52;7.90;99.90
59855;DHT22;45732;52.850;6.896;2023-01-13T18:16:25;8.00;99.90
59855;DHT22;45732;52.850;6.896;2023-01-13T18:18:52;7.90;99.90
59855;DHT22;45732;52.850;6.896;2023-01-13T18:21:39;7.90;99.90
59855;DHT22;45732;52.850;6.896;2023-01-13T18:24:23;7.90;99.90
59855;DHT22;45732;52.850;6.896;2023-01-13T18:27:11;7.80;99.90
59855;DHT22;45732;52.850;6.896;2023-01-13T18:29:52;7.80;99.90
59855;DHT22;45732;52.850;6.896;2023-01-13T18:32:19;7.80;99.90
59855;DHT22;45732;52.850;6.896;2023-01-13T18:34:45;7.80;99.90
59855;DHT22;45732;52.850;6.896;2023-01-13T18:37:12;7.80;99.90
59855;DHT22;45732;52.850;6.896;2023-01-13T18:39:38;7.80;99.90
59855;DHT22;45732;52.850;6.896;2023-01-13T18:42:05;7.80;99.90
59855;DHT22;45732;52.850;6.896;2023-01-13T18:44:50;7.80;99.90
59855;DHT22;45732;52.850;6.896;2023-01-13T18:47:17;7.80;99.90
59855;DHT22;45732;52.850;6.896;2023-01-13T18:49:44;7.80;99.90
59855;DHT22;45732;52.850;6.896;2023-01-13T18:52:10;7.80;99.90
59855;DHT22;45732;52.850;6.896;2023-01-13T18:54:35;7.70;99.90
59855;DHT22;45732;52.850;6.896;2023-01-13T18:57:01;7.70;99.90